createdAt,value
2022-08-25T00:00:07.760Z,97956.06
2022-08-25T00:03:11.088Z,97943.56
2022-08-25T00:06:15.129Z,97948.03
2022-08-25T00:09:21.821Z,97943.97
2022-08-25T00:12:24.596Z,97946.84
2022-08-25T00:15:29.347Z,97950.75
2022-08-25T00:18:32.191Z,97948.88
2022-08-25T00:21:35.242Z,97951.78
2022-08-25T00:24:37.976Z,97952.19
2022-08-25T00:27:40.779Z,97954.00
2022-08-25T00:30:45.544Z,97950.53
2022-08-25T00:33:49.133Z,97954.84
2022-08-25T00:36:52.558Z,97956.25
2022-08-25T00:39:57.211Z,97946.84
2022-08-25T00:43:00.550Z,97950.91
2022-08-25T00:46:04.997Z,97954.63
2022-08-25T00:49:16.383Z,97956.88
2022-08-25T00:52:30.771Z,97956.28
2022-08-25T00:55:39.396Z,97960.16
2022-08-25T00:58:43.700Z,97961.16
2022-08-25T01:01:51.271Z,97961.81
2022-08-25T01:04:54.134Z,97950.91
2022-08-25T01:07:58.812Z,97955.22
2022-08-25T01:11:05.924Z,97952.56
2022-08-25T01:14:10.593Z,97952.16
2022-08-25T01:17:15.952Z,97950.94
2022-08-25T01:20:20.258Z,97953.84
2022-08-25T01:23:25.781Z,97947.69
2022-08-25T01:26:31.631Z,97936.81
2022-08-25T01:29:36.153Z,97934.19
2022-08-25T01:32:38.905Z,97940.53
2022-08-25T01:35:42.250Z,97938.06
2022-08-25T01:38:46.308Z,97936.22
2022-08-25T01:42:04.376Z,97937.28
2022-08-25T01:45:08.365Z,97926.41
2022-08-25T01:48:12.659Z,97932.16
2022-08-25T01:51:17.122Z,97935.00
2022-08-25T01:54:21.370Z,97941.97
2022-08-25T01:57:24.091Z,97939.91
2022-08-25T02:00:26.936Z,97938.00
2022-08-25T02:03:30.298Z,97936.59
2022-08-25T02:06:35.896Z,97941.09
2022-08-25T02:09:40.412Z,97933.75
2022-08-25T02:12:43.234Z,97924.34
2022-08-25T02:15:49.495Z,97938.06
2022-08-25T02:18:53.110Z,97930.47
2022-08-25T02:21:55.862Z,97928.03
2022-08-25T02:25:00.259Z,97923.31
2022-08-25T02:28:03.396Z,97923.13
2022-08-25T02:31:06.843Z,97920.66
2022-08-25T02:34:11.445Z,97919.00
2022-08-25T02:37:14.282Z,97920.06
2022-08-25T02:40:18.663Z,97908.59
2022-08-25T02:43:21.831Z,97912.28
2022-08-25T02:46:25.837Z,97910.03
2022-08-25T02:49:28.712Z,97909.19
2022-08-25T02:52:31.491Z,97909.84
2022-08-25T02:55:35.659Z,97915.75
2022-08-25T02:58:39.307Z,97908.59
2022-08-25T03:01:42.123Z,97916.72
2022-08-25T03:04:45.345Z,97907.13
2022-08-25T03:07:48.173Z,97907.94
2022-08-25T03:10:53.172Z,97918.53
2022-08-25T03:13:56.514Z,97912.03
2022-08-25T03:16:59.399Z,97909.13
2022-08-25T03:20:02.196Z,97918.53
2022-08-25T03:23:06.120Z,97912.81
2022-08-25T03:26:28.163Z,97913.34
2022-08-25T03:29:34.324Z,97913.53
2022-08-25T03:32:37.192Z,97920.44
2022-08-25T03:35:40.686Z,97921.91
2022-08-25T03:38:43.493Z,97916.44
2022-08-25T03:41:48.156Z,97917.66
2022-08-25T03:44:50.929Z,97913.63
2022-08-25T03:47:54.638Z,97912.78
2022-08-25T03:50:57.367Z,97901.72
2022-08-25T03:54:01.213Z,97905.81
2022-08-25T03:57:06.219Z,97904.63
2022-08-25T04:00:12.038Z,97913.78
2022-08-25T04:03:14.946Z,97910.09
2022-08-25T04:06:18.959Z,97911.94
2022-08-25T04:09:21.781Z,97903.38
2022-08-25T04:12:26.314Z,97910.88
2022-08-25T04:15:30.054Z,97902.31
2022-08-25T04:18:34.346Z,97903.34
2022-08-25T04:21:38.893Z,97909.84
2022-08-25T04:24:41.769Z,97913.09
2022-08-25T04:27:45.951Z,97918.25
2022-08-25T04:30:52.035Z,97911.88
2022-08-25T04:33:55.191Z,97906.13
2022-08-25T04:36:58.308Z,97911.44
2022-08-25T04:40:01.160Z,97918.03
2022-08-25T04:43:05.408Z,97917.63
2022-08-25T04:46:11.261Z,97918.03
2022-08-25T04:49:14.092Z,97917.84
2022-08-25T04:52:17.023Z,97916.44
2022-08-25T04:55:20.190Z,97925.44
2022-08-25T04:58:24.344Z,97920.56
2022-08-25T05:01:27.736Z,97920.16
2022-08-25T05:04:30.986Z,97919.94
2022-08-25T05:07:33.878Z,97914.84
2022-08-25T05:10:40.437Z,97914.84
2022-08-25T05:13:51.508Z,97911.19
2022-08-25T05:16:55.214Z,97913.44
2022-08-25T05:19:58.117Z,97909.97
2022-08-25T05:23:00.869Z,97913.47
2022-08-25T05:26:06.942Z,97909.97
2022-08-25T05:29:12.559Z,97913.47
2022-08-25T05:32:15.372Z,97916.13
2022-08-25T05:35:20.249Z,97918.19
2022-08-25T05:38:23.613Z,97935.34
2022-08-25T05:41:29.489Z,97926.59
2022-08-25T05:44:34.287Z,97930.88
2022-08-25T05:47:37.430Z,97927.41
2022-08-25T05:50:40.559Z,97935.44
2022-08-25T05:53:44.985Z,97935.22
2022-08-25T05:56:47.987Z,97930.09
2022-08-25T05:59:52.370Z,97935.03
2022-08-25T06:02:54.185Z,97932.53
2022-08-25T06:06:07.223Z,97941.34
2022-08-25T06:09:11.195Z,97941.91
2022-08-25T06:12:14.289Z,97934.16
2022-08-25T06:15:21.076Z,97931.25
2022-08-25T06:18:23.858Z,97943.88
2022-08-25T06:21:26.661Z,97930.56
2022-08-25T06:24:30.171Z,97925.78
2022-08-25T06:27:32.917Z,97926.16
2022-08-25T06:30:37.025Z,97923.41
2022-08-25T06:33:39.897Z,97927.22
2022-08-25T06:36:42.901Z,97930.88
2022-08-25T06:39:51.175Z,97906.56
2022-08-25T06:42:53.964Z,97894.00
2022-08-25T06:45:59.044Z,97894.53
2022-08-25T06:49:01.880Z,97885.81
2022-08-25T06:52:05.131Z,97872.63
2022-08-25T06:55:08.423Z,97865.97
2022-08-25T06:58:11.448Z,97866.28
2022-08-25T07:01:20.209Z,97861.91
2022-08-25T07:04:23.142Z,97852.66
2022-08-25T07:07:26.123Z,97841.22
2022-08-25T07:10:48.184Z,97786.41
2022-08-25T07:13:51.521Z,97775.63
2022-08-25T07:16:55.627Z,97755.56
2022-08-25T07:19:58.405Z,97757.00
2022-08-25T07:23:01.134Z,97747.28
2022-08-25T07:26:27.095Z,97736.69
2022-08-25T07:29:34.023Z,97729.53
2022-08-25T07:32:41.963Z,97713.50
2022-08-25T07:35:46.099Z,97709.66
2022-08-25T07:38:50.389Z,97700.81
2022-08-25T07:41:54.379Z,97704.63
2022-08-25T07:44:57.589Z,97695.25
2022-08-25T07:48:03.997Z,97679.19
2022-08-25T07:51:09.179Z,97662.63
2022-08-25T07:54:12.328Z,97653.94
2022-08-25T07:57:15.545Z,97642.69
2022-08-25T08:00:19.016Z,97641.91
2022-08-25T08:03:44.710Z,97629.09
2022-08-25T08:06:47.385Z,97616.41
2022-08-25T08:09:56.139Z,97598.88
2022-08-25T08:13:10.057Z,97591.81
2022-08-25T08:16:15.540Z,97583.97
2022-08-25T08:19:23.143Z,97579.88
2022-08-25T08:22:26.220Z,97571.31
2022-08-25T08:25:29.388Z,97570.53
2022-08-25T08:28:32.245Z,97570.88
2022-08-25T08:31:35.049Z,97565.44
2022-08-25T08:34:41.906Z,97567.06
2022-08-25T08:37:47.413Z,97556.72
2022-08-25T08:41:23.392Z,97549.53
2022-08-25T08:44:31.884Z,97543.69
2022-08-25T08:47:50.663Z,97543.75
2022-08-25T08:51:09.751Z,97540.03
2022-08-25T08:54:20.362Z,97544.50
2022-08-25T08:57:29.329Z,97539.56
2022-08-25T09:00:34.366Z,97548.59
2022-08-25T09:03:40.484Z,97548.00
2022-08-25T09:06:47.990Z,97548.06
2022-08-25T09:09:52.232Z,97548.66
2022-08-25T09:13:05.766Z,97547.75
2022-08-25T09:16:38.720Z,97542.25
2022-08-25T09:20:18.418Z,97545.88
2022-08-25T09:23:39.978Z,97551.66
2022-08-25T09:26:50.438Z,97545.19
2022-08-25T09:30:05.212Z,97538.19
2022-08-25T09:33:09.694Z,97552.19
2022-08-25T09:36:12.842Z,97535.53
2022-08-25T09:39:16.971Z,97533.69
2022-08-25T09:42:23.938Z,97537.22
2022-08-25T09:45:39.060Z,97547.31
2022-08-25T09:48:48.482Z,97542.19
2022-08-25T09:52:27.433Z,97532.44
2022-08-25T09:55:34.464Z,97522.75
2022-08-25T09:58:38.163Z,97529.44
2022-08-25T10:01:49.831Z,97530.31
2022-08-25T10:04:53.220Z,97546.50
2022-08-25T10:07:58.132Z,97564.09
2022-08-25T10:11:06.601Z,97551.41
2022-08-25T10:14:20.312Z,97547.38
2022-08-25T10:17:27.663Z,97541.69
2022-08-25T10:20:33.082Z,97530.63
2022-08-25T10:23:43.150Z,97526.59
2022-08-25T10:26:59.924Z,97525.78
2022-08-25T10:30:19.093Z,97526.56
2022-08-25T10:33:33.177Z,97520.88
2022-08-25T10:36:47.309Z,97528.66
2022-08-25T10:40:03.613Z,97532.16
2022-08-25T10:43:19.104Z,97528.38
2022-08-25T10:46:34.536Z,97522.13
2022-08-25T10:49:43.354Z,97525.34
2022-08-25T10:53:02.149Z,97512.06
2022-08-25T10:56:12.907Z,97517.09
2022-08-25T10:59:41.751Z,97520.94
2022-08-25T11:03:13.206Z,97517.94
2022-08-25T11:06:21.577Z,97504.53
2022-08-25T11:09:29.055Z,97505.94
2022-08-25T11:12:36.893Z,97511.41
2022-08-25T11:16:16.164Z,97510.13
2022-08-25T11:19:21.795Z,97503.19
2022-08-25T11:22:30.964Z,97499.00
2022-08-25T11:25:38.767Z,97496.38
2022-08-25T11:28:55.263Z,97501.56
2022-08-25T11:32:02.038Z,97497.84
2022-08-25T11:35:07.686Z,97503.41
2022-08-25T11:38:26.123Z,97501.91
2022-08-25T11:41:41.712Z,97493.69
2022-08-25T11:44:55.858Z,97481.94
2022-08-25T11:48:14.275Z,97488.22
2022-08-25T11:51:33.868Z,97495.25
2022-08-25T11:54:45.707Z,97483.25
2022-08-25T11:57:53.573Z,97486.59
2022-08-25T12:00:58.473Z,97483.31
2022-08-25T12:04:17.388Z,97486.06
2022-08-25T12:07:26.944Z,97480.78
2022-08-25T12:10:55.232Z,97474.34
2022-08-25T12:14:09.881Z,97480.50
2022-08-25T12:17:25.817Z,97472.97
2022-08-25T12:21:02.582Z,97469.34
2022-08-25T12:24:15.639Z,97469.94
2022-08-25T12:27:26.909Z,97475.44
2022-08-25T12:30:40.980Z,97466.44
2022-08-25T12:33:59.459Z,97461.94
2022-08-25T12:37:06.662Z,97469.28
2022-08-25T12:40:25.975Z,97455.78
2022-08-25T12:43:37.799Z,97461.16
2022-08-25T12:46:45.414Z,97455.78
2022-08-25T12:49:51.846Z,97448.66
2022-08-25T12:52:57.183Z,97452.13
2022-08-25T12:56:05.900Z,97449.41
2022-08-25T12:59:18.329Z,97445.03
2022-08-25T13:02:58.380Z,97440.81
2022-08-25T13:06:28.309Z,97439.94
2022-08-25T13:10:10.925Z,97430.13
2022-08-25T13:13:24.242Z,97427.56
2022-08-25T13:16:33.510Z,97427.13
2022-08-25T13:19:38.547Z,97424.47
2022-08-25T13:22:42.602Z,97411.00
2022-08-25T13:25:52.166Z,97408.31
2022-08-25T13:28:59.509Z,97407.75
2022-08-25T13:32:09.472Z,97404.69
2022-08-25T13:35:19.896Z,97402.06
2022-08-25T13:38:23.998Z,97405.59
2022-08-25T13:41:28.639Z,97405.06
2022-08-25T13:44:39.764Z,97395.63
2022-08-25T13:47:55.916Z,97387.88
2022-08-25T13:51:10.852Z,97382.28
2022-08-25T13:54:26.957Z,97379.28
2022-08-25T13:57:31.611Z,97378.63
2022-08-25T14:00:43.147Z,97380.44
2022-08-25T14:03:48.581Z,97385.03
2022-08-25T14:07:25.372Z,97371.56
2022-08-25T14:10:36.213Z,97364.19
2022-08-25T14:13:44.497Z,97367.41
2022-08-25T14:16:50.216Z,97358.28
2022-08-25T14:19:58.301Z,97357.25
2022-08-25T14:23:09.813Z,97351.25
2022-08-25T14:26:12.935Z,97352.84
2022-08-25T14:29:16.683Z,97356.94
2022-08-25T14:32:19.493Z,97341.94
2022-08-25T14:35:23.229Z,97338.34
2022-08-25T14:38:27.444Z,97334.69
2022-08-25T14:41:30.294Z,97340.31
2022-08-25T14:44:33.476Z,97335.88
2022-08-25T14:47:36.295Z,97324.38
2022-08-25T14:50:42.080Z,97326.91
2022-08-25T14:53:46.686Z,97329.50
2022-08-25T14:56:49.833Z,97327.06
2022-08-25T14:59:53.100Z,97319.44
2022-08-25T15:02:56.129Z,97324.00
2022-08-25T15:05:59.313Z,97326.41
2022-08-25T15:09:11.466Z,97318.31
2022-08-25T15:12:17.784Z,97317.84
2022-08-25T15:15:29.326Z,97311.78
2022-08-25T15:18:32.166Z,97308.09
2022-08-25T15:21:36.709Z,97295.13
2022-08-25T15:24:42.035Z,97303.03
2022-08-25T15:27:44.801Z,97298.75
2022-08-25T15:30:47.719Z,97294.53
2022-08-25T15:33:51.332Z,97291.09
2022-08-25T15:36:54.325Z,97293.56
2022-08-25T15:39:58.654Z,97296.78
2022-08-25T15:43:01.637Z,97296.13
2022-08-25T15:46:07.774Z,97295.53
2022-08-25T15:49:10.537Z,97292.34
2022-08-25T15:52:13.881Z,97293.72
2022-08-25T15:55:19.869Z,97279.91
2022-08-25T15:58:22.928Z,97279.44
2022-08-25T16:01:30.510Z,97280.03
2022-08-25T16:04:33.535Z,97274.03
2022-08-25T16:07:36.443Z,97274.50
2022-08-25T16:10:43.299Z,97265.91
2022-08-25T16:13:46.207Z,97275.75
2022-08-25T16:16:48.910Z,97277.44
2022-08-25T16:19:51.770Z,97269.34
2022-08-25T16:22:55.177Z,97268.19
2022-08-25T16:26:00.021Z,97262.78
2022-08-25T16:29:06.588Z,97261.13
2022-08-25T16:32:10.890Z,97258.78
2022-08-25T16:35:14.125Z,97251.63
2022-08-25T16:38:16.959Z,97251.94
2022-08-25T16:41:23.761Z,97254.41
2022-08-25T16:44:27.284Z,97246.66
2022-08-25T16:47:30.174Z,97251.81
2022-08-25T16:50:34.665Z,97246.25
2022-08-25T16:53:55.335Z,97247.16
2022-08-25T16:56:59.989Z,97250.19
2022-08-25T17:00:03.435Z,97251.69
2022-08-25T17:03:07.053Z,97249.03
2022-08-25T17:06:09.917Z,97246.66
2022-08-25T17:09:17.390Z,97248.00
2022-08-25T17:12:28.066Z,97243.72
2022-08-25T17:15:31.587Z,97239.25
2022-08-25T17:18:34.883Z,97246.00
2022-08-25T17:21:40.811Z,97249.03
2022-08-25T17:24:59.118Z,97247.19
2022-08-25T17:28:04.656Z,97238.91
2022-08-25T17:31:09.712Z,97253.81
2022-08-25T17:34:16.563Z,97247.06
2022-08-25T17:37:19.961Z,97251.19
2022-08-25T17:40:25.051Z,97247.47
2022-08-25T17:43:32.644Z,97242.66
2022-08-25T17:46:35.755Z,97238.41
2022-08-25T17:49:39.068Z,97233.63
2022-08-25T17:52:41.997Z,97232.59
2022-08-25T17:55:46.208Z,97237.47
2022-08-25T17:58:52.275Z,97235.63
2022-08-25T18:01:56.376Z,97238.06
2022-08-25T18:04:59.701Z,97236.47
2022-08-25T18:08:02.677Z,97239.72
2022-08-25T18:11:06.655Z,97246.25
2022-08-25T18:14:14.443Z,97250.56
2022-08-25T18:17:21.848Z,97252.75
2022-08-25T18:20:26.366Z,97248.75
2022-08-25T18:23:31.657Z,97251.16
2022-08-25T18:26:34.963Z,97251.72
2022-08-25T18:29:40.670Z,97250.09
2022-08-25T18:32:43.636Z,97252.28
2022-08-25T18:35:47.162Z,97251.69
2022-08-25T18:39:11.400Z,97252.25
2022-08-25T18:42:16.533Z,97258.19
2022-08-25T18:45:22.993Z,97252.56
2022-08-25T18:48:28.622Z,97241.50
2022-08-25T18:51:33.149Z,97247.19
2022-08-25T18:54:36.556Z,97248.00
2022-08-25T18:57:42.721Z,97244.50
2022-08-25T19:00:47.539Z,97241.53
2022-08-25T19:03:51.443Z,97244.25
2022-08-25T19:06:54.617Z,97239.38
2022-08-25T19:09:59.145Z,97247.47
2022-08-25T19:13:08.371Z,97246.13
2022-08-25T19:16:17.810Z,97246.38
2022-08-25T19:19:23.622Z,97245.56
2022-08-25T19:22:41.282Z,97246.13
2022-08-25T19:25:44.761Z,97240.97
2022-08-25T19:28:52.702Z,97236.91
2022-08-25T19:31:57.464Z,97223.69
2022-08-25T19:35:04.488Z,97232.31
2022-08-25T19:38:33.299Z,97228.53
2022-08-25T19:41:34.316Z,97220.41
2022-08-25T19:44:37.696Z,97222.84
2022-08-25T19:47:42.524Z,97225.28
2022-08-25T19:50:45.703Z,97219.75
2022-08-25T19:53:53.645Z,97212.97
2022-08-25T19:56:59.179Z,97209.84
2022-08-25T20:00:02.760Z,97208.47
2022-08-25T20:03:17.623Z,97213.03
2022-08-25T20:06:20.781Z,97210.06
2022-08-25T20:09:38.631Z,97205.25
2022-08-25T20:12:48.023Z,97216.25
2022-08-25T20:15:51.273Z,97210.53
2022-08-25T20:19:03.027Z,97202.94
2022-08-25T20:22:05.954Z,97202.94
2022-08-25T20:25:18.772Z,97204.53
2022-08-25T20:28:22.034Z,97208.81
2022-08-25T20:31:25.257Z,97207.72
2022-08-25T20:34:30.288Z,97211.47
2022-08-25T20:37:35.539Z,97206.88
2022-08-25T20:40:41.914Z,97215.66
2022-08-25T20:43:46.791Z,97216.03
2022-08-25T20:46:49.727Z,97222.72
2022-08-25T20:49:55.838Z,97221.13
2022-08-25T20:52:58.787Z,97219.81
2022-08-25T20:56:02.411Z,97220.84
2022-08-25T20:59:05.709Z,97223.16
2022-08-25T21:02:14.001Z,97220.44
2022-08-25T21:05:19.715Z,97223.66
2022-08-25T21:08:23.779Z,97226.81
2022-08-25T21:11:28.235Z,97220.81
2022-08-25T21:14:31.263Z,97211.84
2022-08-25T21:17:34.831Z,97211.25
2022-08-25T21:20:38.938Z,97214.38
2022-08-25T21:23:43.616Z,97222.03
2022-08-25T21:26:49.696Z,97211.75
2022-08-25T21:29:54.656Z,97201.34
2022-08-25T21:32:58.101Z,97205.31
2022-08-25T21:36:02.617Z,97205.47
2022-08-25T21:39:06.351Z,97208.53
2022-08-25T21:45:17.053Z,97228.59
2022-08-25T21:48:23.800Z,97225.41
2022-08-25T21:51:31.242Z,97226.97
2022-08-25T21:54:34.223Z,97229.75
2022-08-25T21:57:37.028Z,97224.69
2022-08-25T22:00:39.801Z,97230.03
2022-08-25T22:03:43.083Z,97237.00
2022-08-25T22:06:51.612Z,97238.25
2022-08-25T22:09:55.020Z,97248.63
2022-08-25T22:12:57.968Z,97247.31
2022-08-25T22:16:00.812Z,97273.41
2022-08-25T22:19:04.005Z,97273.59
2022-08-25T22:22:08.688Z,97276.41
2022-08-25T22:25:13.042Z,97273.47
2022-08-25T22:28:16.213Z,97264.41
2022-08-25T22:31:20.970Z,97269.59
2022-08-25T22:34:30.717Z,97265.34
2022-08-25T22:37:36.124Z,97260.91
2022-08-25T22:40:39.928Z,97256.13
2022-08-25T22:43:43.206Z,97262.47
2022-08-25T22:46:45.958Z,97267.69
2022-08-25T22:49:48.771Z,97268.81
2022-08-25T22:52:52.999Z,97266.56
2022-08-25T22:55:59.125Z,97274.00
2022-08-25T22:59:08.900Z,97274.31
2022-08-25T23:02:11.839Z,97263.63
2022-08-25T23:05:16.025Z,97261.63
2022-08-25T23:08:39.036Z,97263.31
2022-08-25T23:11:44.080Z,97266.84
2022-08-25T23:14:46.835Z,97270.91
2022-08-25T23:17:50.607Z,97274.59
2022-08-25T23:21:10.969Z,97272.66
2022-08-25T23:24:29.098Z,97272.53
2022-08-25T23:27:33.223Z,97286.16
2022-08-25T23:30:39.428Z,97280.94
2022-08-25T23:33:46.162Z,97270.78
2022-08-25T23:36:48.911Z,97276.69
2022-08-25T23:39:53.080Z,97267.47
2022-08-25T23:42:56.044Z,97255.56
2022-08-25T23:45:59.400Z,97261.03
2022-08-25T23:49:08.136Z,97256.44
2022-08-25T23:52:17.453Z,97259.38
2022-08-25T23:55:22.408Z,97251.44
2022-08-25T23:58:25.204Z,97262.34
